KEED

Details ICAO KEED
Name Needles
Region United States
Timezone America/Los_Angeles (UTC-8.0)
Plans Departing 0
Arriving 7
Stats Elevation 983 ft / 300 m (AMSL)
Location 34.766586° -114.623000°
Runways 2
Magnetic Variation 11.283° E
Sunrise 2017-12-11 14:37:25 UTC / 2017-12-11 06:37:25 Local
Sunset 2017-12-12 00:29:16 UTC / 2017-12-11 16:29:16 Local
Advertisement - Login to hide

Runways

ID Width Length Bearing (true) Bearing (mag) Surface Threshold Offset Overrun Length
02 100 ft / 30 m 4,242 ft / 1,293 m 29.02° 17.74° Asphalt 0 ft / 0 m 700 ft / 213 m
11 100 ft / 30 m 4,999 ft / 1,524 m 119.21° 107.93° Asphalt 0 ft / 0 m 0 ft / 0 m
20 100 ft / 30 m 4,242 ft / 1,293 m 209.03° 197.75° Asphalt 0 ft / 0 m 0 ft / 0 m
29 100 ft / 30 m 4,999 ft / 1,524 m 299.21° 287.93° Asphalt 0 ft / 0 m 0 ft / 0 m

Map

Weather


0- 5 10 15 20 25 30 35+ Temperature / ° C

Clouds and Precipitation
Forecast for 2017-12-12 06:00 UTC. Updated an hour ago

Ground ~20,000 ft ~40,000 ft Winds

METAR

KEED 120356Z AUTO 30008KT 10SM CLR 14/M18 A3027 RMK AO2 SLP238 T01391183

TAF

TAF KEED 112320Z 1200/1224 34010KT P6SM SCT250 FM122000 01009KT P6SM SKC

Frequencies

Recorded 128.32 MHz ASOS
Approach 134.65 MHz LOS ANGELES CNTR
Unicom 123.00 MHz CTAF/UNICOM
Warning: Do not use this data for real-world aviation or navigation. No guarantee of current accuracy is given.